Tucumcari Municipal Airport
KTCC : now visible

Airfield :











YOU CAN JOIN US ON...

 
LOGIN :

Register | Disclaimer

   EN    FR    IT 

 









Legend :    VFR   Marginal VFR   IFR   Intensive IFR   Very Intensive IFR
Visi :
Ceiling :
>= 8 km
>= 3000ft
5 to 8 km
1000 to 3000 ft
1500m to 5 km
500 to 1000 ft
800 to 1500m
200 to 500 ft
< 800m
< 200 ft
Symbols :   Thunderstorms  Fog  Heavy snow  Heavy precipitations  Wind > 20 kt






- Airport Elevation : 4065 ft


KTCC - Tucumcari Municipal

CURRENT METAR :
  • 231453Z AUTO 24007KT 10SM SCT110 11/06 A2988 RMK AO2 SLP091 T01110061 53004

EXPIRED METARs :
  • 231353Z AUTO 24008KT 10SM CLR 08/04 A2988 RMK AO2 SLP092 T00830044
  • 231253Z AUTO 21009KT 10SM OVC110 08/04 A2986 RMK AO2 SLP084 T00830044

TAF KTCC
Valid from the 23 at 12:00 until the 24 at 12:00 UTC


231131Z 2312/2412 24009KT P6SM SKC
FM231700 25022G29KT P6SM SCT080
FM232000 27027G39KT P6SM SCT100
FM240000 33018G26KT P6SM SCT060
FM240700 31009KT P6SM SKC



MET'MAP, your aeronautical weather chart ! - Copyright ORBIFLY December 2007 - Disclaimer

ORBIFLY MET'MAP TEAM :

Programming & Development : Alexandra Zaïnal
Concept & original design : Baudouin d'Aumeries
Assistance for programming : Marc-Olivier Méhu
Technical & hardware support : Manuel Goepfert

Contact : metmap@orbifly.com




SOURCES & CREDITS :

   NOAA       Earth
Advisory